Kempner, TX (76539)

3:30 PM CDT on July 07, 2015 (GMT -0500)
Pecan Valley | | Change Station
CLOSE
Current Station
Personal Weather Station
Location: Kempner, TX
Elevation: 942 ft
Nearby Weather Stations

Elev 942 ft 31.11 °N, 97.99 °W | Updated 11 minutes ago

Partly Cloudy
Partly Cloudy
87.4 °F
Feels Like 93 °F
N
9.0
Wind Variable Wind from South
Gusts 19.0 mph

Today
High -- | Low -- °F
--% Chance of Precip.
Yesterday
High -- | Low -- °F
Precip. -- in
6:34 AM 8:39 PM
Waning Gibbous, 61% visible
Pressure 29.93 in
Visibility 10.0 miles
Clouds Few 4300 ft
Heat Index 93 °F
Dew Point 71 °F
Humidity 59%
Rainfall 0.00 in
Snow Depth Not available.
UV 11 out of 12
Pollen 2.30 out of 12
Air Quality Not available.
Flu Activity Not available.
METAR KGRK 071958Z AUTO 17016KT 10SM FEW043 31/21 A2996 RMK AO2 SLP134 T03070214

More Conditions Fewer Conditions

Pressure 29.93 in
Visibility 10.0 miles
Clouds Few 4300 ft
Heat Index 93 °F
Dew Point 71 °F
Humidity 59%
Rainfall 0.00 in
Snow Depth Not available.
UV 11 out of 12
Pollen 2.30 out of 12
Air Quality Not available.
Flu Activity Not available.
METAR KGRK 071958Z AUTO 17016KT 10SM FEW043 31/21 A2996 RMK AO2 SLP134 T03070214

More Conditions Fewer Conditions

Nowcast | as of 2:57 PM CDT on July 7, 2015

An area of showers will continue mainly west of a line from Gainesville...to Fort Worth...to Comanche through 5 PM. Light to moderate rains will occur with rainfall accumulations up to a quarter inch. Additional showers and thunderstorms are expected in this area through tonight. Elsewhere...widely scattered showers and thunderstorms are occurring...mainly east of Interstate 35. Cloud to ground lightning... heavy downpours and gusty winds may accompany stronger thunderstorms. Otherwise...mostly cloudy and humid conditions will prevail across much of the area this afternoon. Temperatures will range from lower 70s in the west to the lower 90s in the southeast.

×

10-Day Weather Forecast

×

Almanac

Astronomy

Jul. 07, 2015 Rise Set
Actual Time
Civil Twilight
Nautical Twilight
Astronomical Twilight
Moon
Length of Visible Light
Length of Day
Tomorrow will be .
, % of the Moon is Illuminated

Today's Extremes

State Highs State Lows

Community

WunderPhotos

Upload Photos

1,835,890 photos uploaded!

WunderBlogs® & News

Nearby

Air Quality

  Air Quality AQ Index Pollutant
Not available.

Snow Depth

Station Depth Elevation

Earthquake Activity

City Distance Mag. Time & Date
Minimum magnitude displayed is 2.5.

Coastal Water Temperatures

Place Temperature

Stations

Nearby Weather Stations

Station Location Temp. Windchill Dew Point Humidity Wind Precip. Elev Updated Type